createdAt,value
2022-09-23T00:00:37.678Z,101795.00
2022-09-23T00:03:04.360Z,101795.47
2022-09-23T00:05:31.527Z,101793.16
2022-09-23T00:07:58.768Z,101795.06
2022-09-23T00:10:28.027Z,101789.59
2022-09-23T00:12:55.054Z,101787.38
2022-09-23T00:15:21.910Z,101786.06
2022-09-23T00:17:48.356Z,101787.38
2022-09-23T00:20:14.752Z,101785.22
2022-09-23T00:22:41.358Z,101776.25
2022-09-23T00:25:09.271Z,101788.38
2022-09-23T00:27:36.671Z,101779.28
2022-09-23T00:30:08.818Z,101773.72
2022-09-23T00:32:36.552Z,101774.81
2022-09-23T00:35:04.045Z,101771.91
2022-09-23T00:37:31.393Z,101768.66
2022-09-23T00:39:59.749Z,101767.78
2022-09-23T00:42:26.462Z,101765.22
2022-09-23T00:44:57.959Z,101768.63
2022-09-23T00:47:33.982Z,101772.72
2022-09-23T00:50:05.607Z,101771.94
2022-09-23T00:52:32.614Z,101772.19
2022-09-23T00:55:01.035Z,101763.22
2022-09-23T00:57:28.688Z,101766.84
2022-09-23T00:59:55.165Z,101766.63
2022-09-23T01:02:21.703Z,101760.91
2022-09-23T01:04:51.393Z,101762.91
2022-09-23T01:07:18.383Z,101763.53
2022-09-23T01:09:47.042Z,101748.41
2022-09-23T01:12:31.941Z,101753.63
2022-09-23T01:15:13.603Z,101748.63
2022-09-23T01:17:51.955Z,101745.38
2022-09-23T01:20:43.426Z,101748.00
2022-09-23T01:23:49.477Z,101740.50
2022-09-23T01:26:49.819Z,101739.03
2022-09-23T01:30:03.769Z,101736.75
2022-09-23T01:32:42.375Z,101738.44
2022-09-23T01:35:30.521Z,101735.03
2022-09-23T01:38:23.418Z,101732.91
2022-09-23T01:41:08.850Z,101739.97
2022-09-23T01:43:46.913Z,101733.41
2022-09-23T01:46:20.411Z,101723.78
2022-09-23T01:49:02.411Z,101726.41
2022-09-23T01:51:37.401Z,101735.44
2022-09-23T01:54:19.876Z,101727.50
2022-09-23T01:56:59.852Z,101729.44
2022-09-23T01:59:34.664Z,101727.97
2022-09-23T02:02:11.014Z,101723.47
2022-09-23T02:04:45.566Z,101733.56
2022-09-23T02:07:28.183Z,101721.78
2022-09-23T02:10:04.838Z,101721.78
2022-09-23T02:12:35.328Z,101719.00
2022-09-23T02:15:09.094Z,101716.22
2022-09-23T02:17:58.789Z,101712.75
2022-09-23T02:20:29.779Z,101720.41
2022-09-23T02:23:13.091Z,101710.59
2022-09-23T02:26:00.622Z,101708.44
2022-09-23T02:28:49.614Z,101699.47
2022-09-23T02:31:24.908Z,101702.94
2022-09-23T02:34:05.127Z,101693.13
2022-09-23T02:36:41.502Z,101687.59
2022-09-23T02:39:12.857Z,101683.13
2022-09-23T02:42:00.837Z,101688.13
2022-09-23T02:44:28.311Z,101684.25
2022-09-23T02:46:55.954Z,101680.41
2022-09-23T02:49:27.802Z,101682.59
2022-09-23T02:51:54.751Z,101680.06
2022-09-23T02:54:24.636Z,101674.50
2022-09-23T02:56:52.455Z,101672.59
2022-09-23T02:59:21.932Z,101672.81
2022-09-23T03:02:04.519Z,101671.56
2022-09-23T03:04:47.225Z,101660.63
2022-09-23T03:07:33.430Z,101673.69
2022-09-23T03:10:19.076Z,101667.25
2022-09-23T03:13:11.174Z,101667.72
2022-09-23T03:15:47.267Z,101668.19
2022-09-23T03:18:19.593Z,101665.56
2022-09-23T03:20:50.136Z,101664.09
2022-09-23T03:23:23.512Z,101659.16
2022-09-23T03:25:54.113Z,101657.84
2022-09-23T03:28:22.851Z,101653.38
2022-09-23T03:30:51.646Z,101651.53
2022-09-23T03:33:23.881Z,101647.09
2022-09-23T03:36:15.696Z,101648.41
2022-09-23T03:38:46.985Z,101650.34
2022-09-23T03:41:17.385Z,101649.13
2022-09-23T03:43:45.406Z,101642.31
2022-09-23T03:46:14.250Z,101645.50
2022-09-23T03:48:40.694Z,101648.72
2022-09-23T03:51:22.527Z,101644.03
2022-09-23T03:53:49.100Z,101642.56
2022-09-23T03:56:15.822Z,101643.41
2022-09-23T03:58:42.680Z,101635.94
2022-09-23T04:01:09.140Z,101634.25
2022-09-23T04:03:35.526Z,101641.25
2022-09-23T04:06:01.907Z,101633.38
2022-09-23T04:08:28.310Z,101636.38
2022-09-23T04:10:59.725Z,101634.00
2022-09-23T04:13:26.122Z,101629.06
2022-09-23T04:15:52.508Z,101626.97
2022-09-23T04:18:18.920Z,101622.72
2022-09-23T04:20:45.299Z,101626.59
2022-09-23T04:23:11.675Z,101612.25
2022-09-23T04:25:45.617Z,101612.94
2022-09-23T04:28:12.131Z,101617.75
2022-09-23T04:30:43.676Z,101610.16
2022-09-23T04:33:11.195Z,101609.31
2022-09-23T04:35:40.322Z,101613.31
2022-09-23T04:38:07.125Z,101613.31
2022-09-23T04:40:34.109Z,101601.66
2022-09-23T04:43:00.605Z,101606.56
2022-09-23T04:45:27.088Z,101611.50
2022-09-23T04:47:53.668Z,101602.78
2022-09-23T04:50:20.311Z,101610.66
2022-09-23T04:52:46.792Z,101608.34
2022-09-23T04:55:13.182Z,101603.41
2022-09-23T04:57:39.561Z,101602.75
2022-09-23T05:00:06.592Z,101602.28
2022-09-23T05:02:35.118Z,101607.19
2022-09-23T05:05:01.531Z,101605.53
2022-09-23T05:07:27.916Z,101608.97
2022-09-23T05:09:54.305Z,101608.13
2022-09-23T05:12:20.670Z,101609.34
2022-09-23T05:14:47.078Z,101600.84
2022-09-23T05:17:13.505Z,101602.56
2022-09-23T05:19:39.904Z,101605.94
2022-09-23T05:22:06.327Z,101611.50
2022-09-23T05:24:32.710Z,101609.97
2022-09-23T05:26:59.104Z,101613.97
2022-09-23T05:29:25.494Z,101612.91
2022-09-23T05:31:51.904Z,101609.44
2022-09-23T05:34:18.682Z,101604.69
2022-09-23T05:36:45.058Z,101604.78
2022-09-23T05:39:11.447Z,101598.75
2022-09-23T05:41:38.413Z,101603.88
2022-09-23T05:44:04.965Z,101599.88
2022-09-23T05:46:32.014Z,101597.81
2022-09-23T05:49:02.582Z,101599.66
2022-09-23T05:51:31.090Z,101600.56
2022-09-23T05:53:58.827Z,101599.84
2022-09-23T05:56:27.695Z,101601.19
2022-09-23T05:58:56.110Z,101595.78
2022-09-23T06:01:25.044Z,101596.66
2022-09-23T06:03:53.023Z,101599.00
2022-09-23T06:06:22.936Z,101595.69
2022-09-23T06:08:49.348Z,101597.16
2022-09-23T06:11:15.727Z,101598.00
2022-09-23T06:13:42.271Z,101594.47
2022-09-23T06:16:14.485Z,101595.91
2022-09-23T06:18:42.983Z,101599.94
2022-09-23T06:21:12.665Z,101590.94
2022-09-23T06:23:41.780Z,101592.28
2022-09-23T06:26:10.308Z,101602.06
2022-09-23T06:28:38.600Z,101595.72
2022-09-23T06:31:13.331Z,101597.56
2022-09-23T06:33:40.490Z,101604.38
2022-09-23T06:36:07.788Z,101600.53
2022-09-23T06:38:34.879Z,101604.28
2022-09-23T06:41:03.123Z,101601.88
2022-09-23T06:43:30.350Z,101596.56
2022-09-23T06:45:59.000Z,101604.75
2022-09-23T06:48:26.985Z,101601.34
2022-09-23T06:50:54.261Z,101602.97
2022-09-23T06:53:24.617Z,101597.56
2022-09-23T06:56:11.310Z,101605.50
2022-09-23T06:58:39.171Z,101601.34
2022-09-23T07:01:07.917Z,101605.34
2022-09-23T07:03:35.409Z,101606.78
2022-09-23T07:06:02.584Z,101607.94
2022-09-23T07:08:30.185Z,101602.59
2022-09-23T07:10:58.926Z,101605.75
2022-09-23T07:13:25.718Z,101608.25
2022-09-23T07:15:53.569Z,101607.69
2022-09-23T07:18:21.799Z,101604.00
2022-09-23T07:20:48.286Z,101601.16
2022-09-23T07:23:14.884Z,101603.97
2022-09-23T07:25:42.837Z,101601.69
2022-09-23T07:28:09.367Z,101604.16
2022-09-23T07:30:38.163Z,101603.28
2022-09-23T07:33:17.574Z,101601.56
2022-09-23T07:35:51.076Z,101599.00
2022-09-23T07:38:17.463Z,101604.06
2022-09-23T07:40:43.970Z,101603.50
2022-09-23T07:43:10.395Z,101593.38
2022-09-23T07:45:38.868Z,101596.19
2022-09-23T07:48:05.483Z,101597.50
2022-09-23T07:50:32.976Z,101592.13
2022-09-23T07:52:59.376Z,101595.78
2022-09-23T07:55:25.764Z,101597.94
2022-09-23T07:57:52.152Z,101594.16
2022-09-23T08:00:18.576Z,101600.56
2022-09-23T08:02:47.456Z,101593.22
2022-09-23T08:05:16.347Z,101604.81
2022-09-23T08:07:42.715Z,101594.44
2022-09-23T08:10:09.745Z,101597.81
2022-09-23T08:12:36.126Z,101594.94
2022-09-23T08:15:03.001Z,101596.19
2022-09-23T08:17:29.434Z,101599.28
2022-09-23T08:19:55.822Z,101603.78
2022-09-23T08:22:22.208Z,101598.06
2022-09-23T08:24:48.591Z,101592.41
2022-09-23T08:27:15.002Z,101594.34
2022-09-23T08:29:41.420Z,101585.97
2022-09-23T08:32:07.839Z,101585.16
2022-09-23T08:34:35.685Z,101589.47
2022-09-23T08:37:02.138Z,101587.66
2022-09-23T08:39:29.648Z,101581.47
2022-09-23T08:41:58.491Z,101582.88
2022-09-23T08:44:31.294Z,101576.78
2022-09-23T08:47:19.265Z,101574.88
2022-09-23T08:49:53.351Z,101581.44
2022-09-23T08:52:46.023Z,101569.31
2022-09-23T08:55:14.606Z,101577.06
2022-09-23T08:58:24.618Z,101575.06
2022-09-23T09:01:07.946Z,101579.06
2022-09-23T09:03:42.977Z,101573.50
2022-09-23T09:06:17.205Z,101575.25
2022-09-23T09:08:51.110Z,101568.16
2022-09-23T09:11:19.261Z,101567.94
2022-09-23T09:14:18.981Z,101567.88
2022-09-23T09:16:59.864Z,101566.22
2022-09-23T09:19:53.331Z,101567.78
2022-09-23T09:25:32.098Z,101559.53
2022-09-23T09:28:01.170Z,101560.97
2022-09-23T09:30:28.122Z,101558.34
2022-09-23T09:33:13.202Z,101559.50
2022-09-23T09:35:58.602Z,101560.50
2022-09-23T09:38:25.007Z,101549.66
2022-09-23T09:40:51.650Z,101544.09
2022-09-23T09:43:24.879Z,101538.44
2022-09-23T09:46:29.976Z,101534.56
2022-09-23T09:49:01.992Z,101534.06
2022-09-23T09:51:29.312Z,101534.44
2022-09-23T09:54:17.312Z,101525.06
2022-09-23T09:56:44.946Z,101519.38
2022-09-23T09:59:17.965Z,101526.47
2022-09-23T10:01:46.131Z,101513.75
2022-09-23T10:04:23.583Z,101512.25
2022-09-23T10:07:13.480Z,101508.91
2022-09-23T10:09:47.474Z,101509.44
2022-09-23T10:12:18.528Z,101509.59
2022-09-23T10:14:47.204Z,101502.84
2022-09-23T10:17:40.088Z,101502.03
2022-09-23T10:20:09.024Z,101499.09
2022-09-23T10:22:40.383Z,101495.44
2022-09-23T10:25:19.324Z,101498.78
2022-09-23T10:27:45.752Z,101495.59
2022-09-23T10:30:27.002Z,101497.50
2022-09-23T10:32:56.823Z,101493.56
2022-09-23T10:35:26.980Z,101498.03
2022-09-23T10:37:55.640Z,101489.41
2022-09-23T10:40:57.672Z,101490.28
2022-09-23T10:43:51.961Z,101493.16
2022-09-23T10:46:38.218Z,101482.78
2022-09-23T10:49:19.889Z,101485.75
2022-09-23T10:52:07.501Z,101477.81
2022-09-23T10:54:55.236Z,101484.59
2022-09-23T10:57:41.658Z,101474.16
2022-09-23T11:00:48.407Z,101476.53
2022-09-23T11:04:00.015Z,101473.28
2022-09-23T11:06:53.820Z,101474.78
2022-09-23T11:09:58.670Z,101465.63
2022-09-23T11:12:47.106Z,101464.25
2022-09-23T11:15:41.449Z,101462.19
2022-09-23T11:18:31.616Z,101456.41
2022-09-23T11:21:19.518Z,101449.91
2022-09-23T11:24:17.829Z,101451.00
2022-09-23T11:27:03.813Z,101442.94
2022-09-23T11:29:50.712Z,101434.97
2022-09-23T11:32:48.106Z,101432.09
2022-09-23T11:35:32.379Z,101428.81
2022-09-23T11:38:08.362Z,101433.91
2022-09-23T11:40:44.047Z,101426.97
2022-09-23T11:43:19.132Z,101424.22
2022-09-23T11:46:00.923Z,101413.28
2022-09-23T11:48:39.349Z,101412.97
2022-09-23T11:51:16.155Z,101411.09
2022-09-23T11:53:47.935Z,101405.75
2022-09-23T11:56:34.823Z,101406.91
2022-09-23T11:59:38.706Z,101392.78
2022-09-23T12:02:30.587Z,101388.63
2022-09-23T12:05:06.681Z,101389.44
2022-09-23T12:07:56.673Z,101381.47
2022-09-23T12:10:41.045Z,101385.41
2022-09-23T12:13:17.916Z,101376.56
2022-09-23T12:16:02.420Z,101373.69
2022-09-23T12:18:55.308Z,101378.81
2022-09-23T12:21:51.259Z,101375.13
2022-09-23T12:24:33.565Z,101378.50
2022-09-23T12:27:06.025Z,101381.50
2022-09-23T12:29:35.831Z,101369.16
2022-09-23T12:32:07.323Z,101363.28
2022-09-23T12:34:41.267Z,101367.72
2022-09-23T12:37:07.725Z,101360.31
2022-09-23T12:39:37.165Z,101363.34
2022-09-23T12:42:06.504Z,101358.91
2022-09-23T12:44:42.139Z,101357.31
2022-09-23T12:47:14.442Z,101351.50
2022-09-23T12:49:42.452Z,101354.47
2022-09-23T12:52:11.765Z,101350.16
2022-09-23T12:54:43.200Z,101346.13
2022-09-23T12:57:11.627Z,101346.03
2022-09-23T12:59:56.091Z,101344.22
2022-09-23T13:02:33.485Z,101333.06
2022-09-23T13:05:32.089Z,101331.03
2022-09-23T13:08:04.660Z,101332.69
2022-09-23T13:10:36.640Z,101324.84
2022-09-23T13:13:03.317Z,101323.66
2022-09-23T13:15:35.704Z,101316.75
2022-09-23T13:18:22.000Z,101316.91
2022-09-23T13:20:53.496Z,101317.94
2022-09-23T13:23:31.288Z,101315.56
2022-09-23T13:26:00.862Z,101313.94
2022-09-23T13:28:38.952Z,101306.06
2022-09-23T13:31:13.688Z,101307.28
2022-09-23T13:33:42.657Z,101299.19
2022-09-23T13:36:13.446Z,101294.34
2022-09-23T13:38:40.766Z,101296.06
2022-09-23T13:41:20.847Z,101289.50
2022-09-23T13:43:53.603Z,101279.97
2022-09-23T13:46:22.712Z,101270.78
2022-09-23T13:49:24.319Z,101273.69
2022-09-23T13:51:54.051Z,101258.81
2022-09-23T13:54:28.838Z,101264.50
2022-09-23T13:56:56.495Z,101257.31
2022-09-23T13:59:31.474Z,101261.84
2022-09-23T14:02:13.522Z,101260.03
2022-09-23T14:04:40.294Z,101253.06
2022-09-23T14:07:09.504Z,101247.97
2022-09-23T14:09:37.634Z,101253.88
2022-09-23T14:12:06.625Z,101254.53
2022-09-23T14:14:36.396Z,101255.00
2022-09-23T14:17:07.456Z,101249.00
2022-09-23T14:19:35.815Z,101249.25
2022-09-23T14:22:03.113Z,101239.47
2022-09-23T14:27:20.370Z,101232.16
2022-09-23T14:29:47.683Z,101234.50
2022-09-23T14:32:18.694Z,101230.16
2022-09-23T14:35:06.574Z,101228.66
2022-09-23T14:37:54.933Z,101235.66
2022-09-23T14:40:33.133Z,101221.25
2022-09-23T14:43:32.657Z,101223.78
2022-09-23T14:45:59.439Z,101222.94
2022-09-23T14:48:29.762Z,101217.22
2022-09-23T14:50:58.834Z,101221.91
2022-09-23T14:53:32.989Z,101215.59
2022-09-23T14:56:08.527Z,101215.94
2022-09-23T14:58:59.196Z,101223.63
2022-09-23T15:01:32.105Z,101208.75
2022-09-23T15:04:00.459Z,101216.25
2022-09-23T15:06:27.614Z,101206.56
2022-09-23T15:08:55.823Z,101211.09
2022-09-23T15:11:22.648Z,101206.41
2022-09-23T15:13:52.347Z,101201.75
2022-09-23T15:16:27.040Z,101195.34
2022-09-23T15:18:57.696Z,101200.72
2022-09-23T15:21:30.126Z,101198.03
2022-09-23T15:23:57.524Z,101201.63
2022-09-23T15:26:48.359Z,101191.16
2022-09-23T15:29:14.759Z,101193.63
2022-09-23T15:31:41.258Z,101190.34
2022-09-23T15:34:10.580Z,101187.50
2022-09-23T15:36:38.240Z,101192.88
2022-09-23T15:39:08.589Z,101185.06
2022-09-23T15:41:34.992Z,101191.97
2022-09-23T15:44:15.860Z,101183.09
2022-09-23T15:46:46.845Z,101189.13
2022-09-23T15:49:27.191Z,101194.38
2022-09-23T15:51:53.941Z,101189.84
2022-09-23T15:54:20.372Z,101188.88
2022-09-23T15:56:47.759Z,101184.00
2022-09-23T15:59:14.187Z,101178.78
2022-09-23T16:01:43.162Z,101183.63
2022-09-23T16:04:11.598Z,101182.28
2022-09-23T16:06:38.008Z,101179.75
2022-09-23T16:09:04.417Z,101186.78
2022-09-23T16:11:34.398Z,101184.00
2022-09-23T16:14:01.254Z,101185.56
2022-09-23T16:16:28.188Z,101182.22
2022-09-23T16:18:55.038Z,101182.25
2022-09-23T16:21:25.263Z,101175.84
2022-09-23T16:23:53.462Z,101180.50
2022-09-23T16:26:24.114Z,101175.69
2022-09-23T16:28:52.902Z,101178.47
2022-09-23T16:31:20.100Z,101175.91
2022-09-23T16:33:48.033Z,101167.00
2022-09-23T16:36:21.834Z,101171.19
2022-09-23T16:38:48.229Z,101167.88
2022-09-23T16:41:15.175Z,101170.06
2022-09-23T16:43:41.612Z,101172.84
2022-09-23T16:46:12.107Z,101174.56
2022-09-23T16:48:40.471Z,101172.63
2022-09-23T16:51:08.677Z,101173.63
2022-09-23T16:53:35.205Z,101166.84
2022-09-23T16:56:09.345Z,101162.50
2022-09-23T16:58:39.302Z,101159.34
2022-09-23T17:01:26.476Z,101157.88
2022-09-23T17:03:53.215Z,101162.28
2022-09-23T17:06:19.783Z,101154.56
2022-09-23T17:08:48.338Z,101153.22
2022-09-23T17:11:16.434Z,101154.56
2022-09-23T17:13:44.098Z,101151.00
2022-09-23T17:16:21.083Z,101152.25
2022-09-23T17:18:47.553Z,101154.50
2022-09-23T17:21:14.182Z,101159.19
2022-09-23T17:23:40.620Z,101148.81
2022-09-23T17:26:09.710Z,101148.31
2022-09-23T17:28:36.364Z,101151.69
2022-09-23T17:31:05.623Z,101159.28
2022-09-23T17:33:37.266Z,101158.91
2022-09-23T17:36:12.470Z,101156.91
2022-09-23T17:38:39.315Z,101159.28
2022-09-23T17:41:07.487Z,101161.00
2022-09-23T17:43:34.417Z,101157.50
2022-09-23T17:46:06.183Z,101155.72
2022-09-23T17:48:34.597Z,101151.66
2022-09-23T17:51:03.889Z,101152.28
2022-09-23T17:53:32.991Z,101155.94
2022-09-23T17:56:16.966Z,101156.47
2022-09-23T17:58:44.584Z,101154.31
2022-09-23T18:01:13.644Z,101154.94
2022-09-23T18:03:43.226Z,101156.75
2022-09-23T18:06:12.918Z,101157.97
2022-09-23T18:08:40.694Z,101155.94
2022-09-23T18:11:11.918Z,101160.63
2022-09-23T18:13:38.306Z,101157.09
2022-09-23T18:16:04.762Z,101159.53
2022-09-23T18:18:31.155Z,101157.63
2022-09-23T18:21:01.732Z,101158.63
2022-09-23T18:23:28.763Z,101158.25
2022-09-23T18:25:55.802Z,101160.31
2022-09-23T18:28:22.397Z,101155.09
2022-09-23T18:30:55.704Z,101156.72
2022-09-23T18:33:23.602Z,101147.06
2022-09-23T18:35:51.732Z,101151.03
2022-09-23T18:38:18.818Z,101149.72
2022-09-23T18:40:57.045Z,101150.63
2022-09-23T18:43:25.888Z,101146.13
2022-09-23T18:46:04.076Z,101153.53
2022-09-23T18:48:50.935Z,101149.44
2022-09-23T18:51:19.174Z,101145.63
2022-09-23T18:53:50.191Z,101148.75
2022-09-23T18:56:17.418Z,101143.91
2022-09-23T18:58:51.934Z,101142.94
2022-09-23T19:01:20.213Z,101143.72
2022-09-23T19:03:46.778Z,101133.19
2022-09-23T19:06:21.182Z,101137.84
2022-09-23T19:08:50.648Z,101143.88
2022-09-23T19:11:17.462Z,101144.97
2022-09-23T19:13:43.853Z,101139.69
2022-09-23T19:16:13.202Z,101141.38
2022-09-23T19:18:40.926Z,101142.84
2022-09-23T19:21:10.600Z,101143.09
2022-09-23T19:23:36.988Z,101142.84
2022-09-23T19:26:05.539Z,101135.44
2022-09-23T19:28:31.981Z,101127.31
2022-09-23T19:30:58.695Z,101131.38
2022-09-23T19:33:25.070Z,101126.72
2022-09-23T19:35:53.433Z,101135.25
2022-09-23T19:38:21.295Z,101131.38
2022-09-23T19:40:50.060Z,101130.22
2022-09-23T19:43:18.063Z,101126.38
2022-09-23T19:45:44.585Z,101119.94
2022-09-23T19:48:10.976Z,101126.56
2022-09-23T19:50:41.483Z,101127.25
2022-09-23T19:53:08.097Z,101133.13
2022-09-23T19:55:35.468Z,101127.88
2022-09-23T19:58:02.726Z,101124.72
2022-09-23T20:00:29.359Z,101126.91
2022-09-23T20:02:56.686Z,101122.38
2022-09-23T20:05:23.942Z,101127.84
2022-09-23T20:07:51.886Z,101126.16
2022-09-23T20:10:18.370Z,101121.03
2022-09-23T20:12:44.761Z,101119.50
2022-09-23T20:15:11.857Z,101123.66
2022-09-23T20:17:40.110Z,101115.25
2022-09-23T20:20:08.668Z,101115.03
2022-09-23T20:22:35.075Z,101108.00
2022-09-23T20:25:02.536Z,101113.09
2022-09-23T20:27:31.541Z,101105.53
2022-09-23T20:29:58.957Z,101110.03
2022-09-23T20:32:25.525Z,101103.88
2022-09-23T20:34:53.416Z,101110.47
2022-09-23T20:37:23.355Z,101099.91
2022-09-23T20:39:51.444Z,101101.94
2022-09-23T20:42:19.917Z,101104.50
2022-09-23T20:44:47.289Z,101104.72
2022-09-23T20:47:16.106Z,101103.63
2022-09-23T20:49:44.327Z,101101.59
2022-09-23T20:52:11.801Z,101102.09
2022-09-23T20:54:41.832Z,101107.31
2022-09-23T20:57:12.875Z,101095.16
2022-09-23T20:59:40.489Z,101100.84
2022-09-23T21:02:07.411Z,101099.19
2022-09-23T21:04:34.908Z,101102.00
2022-09-23T21:07:01.319Z,101095.63
2022-09-23T21:09:30.981Z,101092.78
2022-09-23T21:11:57.811Z,101089.41
2022-09-23T21:14:24.240Z,101086.84
2022-09-23T21:16:50.709Z,101087.09
2022-09-23T21:19:18.577Z,101091.66
2022-09-23T21:21:45.038Z,101088.91
2022-09-23T21:24:43.774Z,101083.56
2022-09-23T21:26:58.136Z,101088.28
2022-09-23T21:29:24.510Z,101082.69
2022-09-23T21:31:50.926Z,101079.66
2022-09-23T21:34:17.549Z,101079.09
2022-09-23T21:36:44.276Z,101082.72
2022-09-23T21:39:11.970Z,101076.38
2022-09-23T21:41:38.927Z,101075.44
2022-09-23T21:44:06.442Z,101072.69
2022-09-23T21:46:35.893Z,101076.00
2022-09-23T21:49:03.923Z,101076.81
2022-09-23T21:51:40.197Z,101067.25
2022-09-23T21:54:12.592Z,101072.94
2022-09-23T21:56:39.048Z,101073.22
2022-09-23T21:59:07.553Z,101069.31
2022-09-23T22:01:36.907Z,101078.84
2022-09-23T22:04:12.198Z,101078.22
2022-09-23T22:06:40.347Z,101077.97
2022-09-23T22:09:10.673Z,101068.69
2022-09-23T22:11:57.021Z,101071.59
2022-09-23T22:14:27.343Z,101072.22
2022-09-23T22:16:57.858Z,101069.66
2022-09-23T22:19:34.989Z,101075.22
2022-09-23T22:22:06.595Z,101068.16
2022-09-23T22:24:32.998Z,101068.22
2022-09-23T22:26:59.403Z,101062.53
2022-09-23T22:29:44.581Z,101058.63
2022-09-23T22:32:30.219Z,101058.13
2022-09-23T22:34:56.855Z,101057.03
2022-09-23T22:37:30.228Z,101053.63
2022-09-23T22:39:56.676Z,101059.28
2022-09-23T22:42:23.133Z,101049.13
2022-09-23T22:44:50.482Z,101044.13
2022-09-23T22:47:17.984Z,101035.91
2022-09-23T22:49:45.498Z,101041.88
2022-09-23T22:52:12.485Z,101046.34
2022-09-23T22:54:38.922Z,101049.13
2022-09-23T22:57:06.846Z,101039.88
2022-09-23T22:59:33.640Z,101043.53
2022-09-23T23:02:02.386Z,101041.03
2022-09-23T23:04:29.765Z,101039.09
2022-09-23T23:06:57.120Z,101045.25
2022-09-23T23:09:23.522Z,101050.91
2022-09-23T23:11:49.931Z,101045.81
2022-09-23T23:14:17.987Z,101038.41
2022-09-23T23:16:46.071Z,101038.75
2022-09-23T23:19:14.573Z,101032.34
2022-09-23T23:21:43.363Z,101031.78
2022-09-23T23:24:21.761Z,101033.38
2022-09-23T23:26:48.490Z,101025.31
2022-09-23T23:29:16.893Z,101029.19
2022-09-23T23:31:43.848Z,101033.50
2022-09-23T23:34:15.727Z,101025.03
2022-09-23T23:36:43.615Z,101026.97
2022-09-23T23:39:10.874Z,101016.50
2022-09-23T23:41:39.122Z,101016.47
2022-09-23T23:44:05.908Z,101009.53
2022-09-23T23:46:33.521Z,101009.09
2022-09-23T23:49:00.369Z,101008.56
2022-09-23T23:51:27.470Z,101014.53
2022-09-23T23:53:54.537Z,101010.47
2022-09-23T23:56:23.337Z,101004.63
2022-09-23T23:58:57.743Z,101016.69
